x

Ilm3 - 27 Miles Se Of Wrightsville Beach, Nc (41037) Weather Station

10:08am - Tue 3rd May 2016 All times are EDT. -4 hours from GMT.

  • Wind
    11mph, 18mph gusts
  • Sea Temp 72°f
  • Air Temp 72°f
  • Sea Pressure 1011.6mb
  • Ilm3 - 27 Miles Se Of Wrightsville Beach, Nc
  • Ilm3 - 27 Miles Se Of Wrightsville Beach, Nc

More Historic Weather Station data

Upgrade to MSW Pro to gain access to the past 30 days of data for over 8000 Wavebouys and Weather Stations around the globe.

Join Pro

Comparision Forecast

View Surf forecast
   
Tue 05/03 10:08am 11 18 mph 1011.6mb 72f 72f
9:08am 25 36 mph 1010.9mb 72f 72f
8:08am 22 29 mph 1011.1mb 72f 74f
7:08am 25 34 mph 1010.5mb 72f 74f
6:08am 20 27 mph 1010.3mb 73f 74f
5:08am 18 25 mph 1011.6mb 72f 74f
4:08am 22 27 mph 1010.7mb 72f 74f
3:08am 20 27 mph 1011.5mb 72f 72f
2:08am 20 27 mph 1013.1mb 72f 73f
1:08am 20 27 mph 1014mb 71f 74f
12:08am 13 18 mph 1014.9mb 71f 74f
Mon 05/02 11:08pm 9 13 mph 1015.5mb 71f 73f
10:08pm 9 13 mph 1015.7mb 71f 73f
9:08pm 9 13 mph 1016mb 72f 73f
8:08pm 11 16 mph 1014.7mb 72f 73f
7:08pm 11 16 mph 1015mb 72f 74f
6:08pm 16 20 mph 1014.8mb 72f 74f
5:08pm 11 16 mph 1014.5mb 72f 74f
4:08pm 11 13 mph 1016mb 72f 74f
3:08pm 11 16 mph 1016.7mb 72f 74f
2:08pm 11 16 mph 1016.9mb 72f 74f
1:08pm 9 13 mph 1016.6mb 71f 73f
12:08pm 9 11 mph 1017.8mb 71f 73f
11:08am 9 13 mph 1019mb 71f 73f
10:08am 11 13 mph 1018.5mb 71f 73f
9:08am 11 16 mph 1018.2mb 71f 73f
8:08am 13 18 mph 1017.5mb 71f 73f
7:08am 11 16 mph 1017mb 72f 73f
6:08am 13 18 mph 1016.8mb 72f 73f
5:08am 11 16 mph 1016.8mb 72f 73f
4:08am 11 13 mph 1016.6mb 72f 73f
3:08am 11 16 mph 1016.2mb 71f 73f
2:08am 11 13 mph 1016.9mb 71f 73f
1:08am 11 16 mph 1017.3mb 71f 73f
12:08am 13 16 mph 1017.1mb 71f 73f
Sun 05/01 11:08pm 16 20 mph 1016.9mb 71f 73f
10:08pm 16 20 mph 1017.1mb 71f 73f
9:08pm 11 16 mph 1017.5mb 71f 73f
8:08pm 9 13 mph 1018.3mb 71f 73f
7:08pm 13 18 mph 1017.9mb 71f 73f
6:08pm 4 7 mph 1018.7mb 72f 73f
4:08pm 4 7 mph 1018.3mb 72f 74f
3:08pm 9 11 mph 1019.9mb 72f 74f
2:08pm 9 13 mph 1019.6mb 72f 74f
1:08pm 11 16 mph 1019mb 72f 74f
12:08pm 11 16 mph 1019.6mb 71f 74f
11:08am 11 16 mph 1019.6mb 71f 73f
10:08am 13 18 mph 1019.9mb 71f 74f
9:08am 16 22 mph 1018.7mb 71f 74f
8:08am 16 20 mph 1018.8mb 71f 73f
7:08am 13 18 mph 1018.5mb 71f 73f
6:08am 11 16 mph 1018.4mb 72f 73f
5:08am 18 22 mph 1018.5mb 72f 73f
4:08am 16 22 mph 1018.4mb 72f 74f
3:08am 13 20 mph 1018mb 72f 72f
2:08am 16 20 mph 1018.5mb 72f 70f
1:08am 16 20 mph 1018.9mb 72f 70f
12:08am 16 22 mph 1019.7mb 71f 69f
Sat 04/30 11:08pm 18 22 mph 1020.2mb 70f 68f
10:08pm 18 22 mph 1020.2mb 70f 67f
9:08pm 18 25 mph 1019.8mb 70f 67f
8:08pm 18 25 mph 1019.9mb 70f 67f
7:08pm 20 27 mph 1019.1mb 70f 66f
6:08pm 20 27 mph 1019.1mb 70f 66f
5:08pm 18 25 mph 1018.6mb 70f 66f
4:08pm 18 25 mph 1019.8mb 70f 66f
3:08pm 16 22 mph 1019.5mb 70f 66f
2:08pm 16 20 mph 1018.9mb 70f 66f
1:08pm 16 20 mph 1018.6mb 69f 66f
12:08pm 16 22 mph 1018.6mb 69f 66f
11:08am 18 25 mph 1019.3mb 69f 66f
10:08am 20 25 mph 1018.6mb 69f 65f
9:08am 20 27 mph 1018.6mb 69f 66f
8:08am 20 27 mph 1018.7mb 69f 66f
7:08am 20 27 mph 1017.2mb 69f 66f
6:08am 16 20 mph 1016.7mb 69f 67f
5:08am 11 16 mph 1016.2mb 69f 69f
4:08am 7 11 mph 1015.8mb 69f 70f
3:08am 7 11 mph 1015.1mb 70f 70f
2:08am 9 11 mph 1015.3mb 70f 69f
1:08am 9 13 mph 1015.6mb 70f 69f
12:08am 11 16 mph 1015.5mb 69f 68f
Fri 04/29 11:08pm 11 16 mph 1015.8mb 69f 69f
10:08pm 13 18 mph 1015.6mb 69f 69f
9:08pm 11 16 mph 1015mb 69f 69f
8:08pm 7 9 mph 1015.1mb 69f 69f
7:08pm 4 9 mph 1014.6mb 69f 69f
6:08pm 7 9 mph 1014.1mb 69f 69f
5:08pm 7 9 mph 1014.2mb 69f 68f
4:08pm 9 11 mph 1014.3mb 69f 68f